Time;durP1;ratioP1;P1;durP2;ratioP2;P2;SDS_P1;SDS_P2;PMS_P1;PMS_P2;Temp;Humidity;BMP_temperature;BMP_pressure;BME280_temperature;BME280_humidity;BME280_pressure;Samples;Min_cycle;Max_cycle;Signal;HPM_P1;HPM_P2
2021/04/12 00:02:43;;;;;;;1999.90;999.90;;;2.00;80.10;;;;;;5067011;28;20396;-72
2021/04/12 00:05:35;;;;;;;1999.90;999.90;;;2.00;80.10;;;;;;5068104;28;20095;-72
2021/04/12 00:08:07;;;;;;;1999.90;999.90;;;2.00;80.10;;;;;;5067061;28;20042;-71
2021/04/12 00:10:43;;;;;;;1999.90;999.90;;;2.00;80.10;;;;;;5067833;28;20068;-71
2021/04/12 00:13:19;;;;;;;1999.90;999.90;;;1.90;80.20;;;;;;5068632;28;20041;-71
2021/04/12 00:15:53;;;;;;;1999.90;999.90;;;1.90;80.30;;;;;;5069307;28;20163;-71
2021/04/12 00:18:27;;;;;;;1999.90;999.90;;;1.90;80.30;;;;;;5068897;28;20056;-72
2021/04/12 00:20:59;;;;;;;1999.90;999.90;;;1.80;80.40;;;;;;5068586;28;20052;-71
2021/04/12 00:23:38;;;;;;;1999.90;999.90;;;1.80;80.50;;;;;;5071115;28;20056;-71
2021/04/12 00:26:34;;;;;;;1999.90;999.90;;;1.80;80.50;;;;;;5069472;28;20070;-70
2021/04/12 00:29:14;;;;;;;1999.90;999.90;;;1.80;80.60;;;;;;5068887;28;20044;-71
2021/04/12 00:31:55;;;;;;;1999.90;999.90;;;1.70;80.50;;;;;;5067533;28;20041;-71
2021/04/12 00:34:43;;;;;;;1999.90;999.90;;;1.70;80.60;;;;;;5064051;28;20063;-71
2021/04/12 00:37:29;;;;;;;1999.90;999.90;;;1.70;80.60;;;;;;5070345;28;20080;-71
2021/04/12 00:40:06;;;;;;;1999.90;999.90;;;1.70;80.70;;;;;;5093123;28;20051;-71
2021/04/12 00:42:42;;;;;;;1999.90;999.90;;;1.60;80.70;;;;;;5067496;28;20062;-71
2021/04/12 00:45:22;;;;;;;1999.90;999.90;;;1.60;80.70;;;;;;5069991;28;20567;-71
2021/04/12 00:48:26;;;;;;;1999.90;999.90;;;1.60;80.40;;;;;;5067186;28;20044;-71
2021/04/12 00:51:16;;;;;;;1999.90;999.90;;;1.60;80.20;;;;;;5066245;28;20045;-71
2021/04/12 00:54:12;;;;;;;1999.90;999.90;;;1.60;80.00;;;;;;5067638;28;20044;-71
2021/04/12 00:57:04;;;;;;;1999.90;999.90;;;1.70;80.10;;;;;;5068673;28;20059;-71
2021/04/12 00:59:48;;;;;;;1999.90;999.90;;;1.70;80.00;;;;;;5065530;28;20517;-71
2021/04/12 01:02:42;;;;;;;1999.90;999.90;;;1.70;79.80;;;;;;5066765;28;20044;-71
2021/04/12 01:05:33;;;;;;;1999.90;999.90;;;1.70;79.70;;;;;;5070412;28;20484;-71
2021/04/12 01:08:24;;;;;;;1999.90;999.90;;;1.60;79.60;;;;;;5061042;28;20044;-72
2021/04/12 01:11:18;;;;;;;1999.90;999.90;;;1.60;79.70;;;;;;5066921;28;20052;-71
2021/04/12 01:13:59;;;;;;;1999.90;999.90;;;1.60;79.80;;;;;;5065640;28;20096;-71
2021/04/12 01:16:25;;;;;;;1999.90;999.90;;;1.50;79.80;;;;;;5066192;28;20055;-72
2021/04/12 01:19:48;;;;;;;1999.90;999.90;;;1.50;80.00;;;;;;5062089;28;20521;-71
2021/04/12 01:22:29;;;;;;;1999.90;999.90;;;1.50;80.10;;;;;;5065083;28;20057;-71
2021/04/12 01:25:17;;;;;;;1999.90;999.90;;;1.60;80.20;;;;;;5065558;28;20060;-71
2021/04/12 01:27:50;;;;;;;1999.90;999.90;;;1.60;80.20;;;;;;5069252;28;20332;-71
2021/04/12 01:30:56;;;;;;;1999.90;999.90;;;1.50;80.10;;;;;;5068732;28;20051;-71
2021/04/12 01:33:56;;;;;;;1999.90;999.90;;;1.50;80.30;;;;;;5068667;28;20383;-71
2021/04/12 01:36:28;;;;;;;1999.90;999.90;;;1.50;80.40;;;;;;5067973;28;20699;-71
2021/04/12 01:39:21;;;;;;;1999.90;999.90;;;1.50;80.30;;;;;;5069361;28;20123;-71
2021/04/12 01:42:19;;;;;;;1999.90;999.90;;;1.50;80.30;;;;;;5063764;28;20052;-71
2021/04/12 01:44:53;;;;;;;1999.90;999.90;;;1.50;80.20;;;;;;5065903;28;20383;-71
2021/04/12 01:47:40;;;;;;;1999.90;999.90;;;1.50;80.10;;;;;;5067584;28;20125;-71
2021/04/12 01:50:46;;;;;;;1999.90;999.90;;;1.40;80.00;;;;;;5064390;28;20364;-71
2021/04/12 01:53:27;;;;;;;1999.90;999.90;;;1.40;80.00;;;;;;5068661;28;20048;-71
2021/04/12 01:56:19;;;;;;;1999.90;999.90;;;1.40;80.10;;;;;;5065599;28;20131;-71
2021/04/12 01:59:02;;;;;;;1999.90;999.90;;;1.30;80.00;;;;;;5067317;28;20603;-71
2021/04/12 02:01:43;;;;;;;1999.90;999.90;;;1.30;80.10;;;;;;5067093;28;20046;-71
2021/04/12 02:04:12;;;;;;;1999.90;999.90;;;1.20;80.10;;;;;;5067419;28;20098;-71
2021/04/12 02:07:04;;;;;;;1999.90;999.90;;;1.20;80.20;;;;;;5069055;28;20051;-71
2021/04/12 02:09:58;;;;;;;1999.90;999.90;;;1.20;80.30;;;;;;5065182;28;20043;-71
2021/04/12 02:12:30;;;;;;;1999.90;999.90;;;1.10;80.20;;;;;;5067149;28;20048;-71
2021/04/12 02:15:17;;;;;;;1999.90;999.90;;;1.10;80.40;;;;;;5065988;28;20051;-71
2021/04/12 02:18:09;;;;;;;1999.90;999.90;;;1.10;80.50;;;;;;5063898;28;20131;-71
2021/04/12 02:20:41;;;;;;;1999.90;999.90;;;1.10;80.60;;;;;;5071398;28;20044;-71
2021/04/12 02:24:04;;;;;;;1999.90;999.90;;;1.10;80.60;;;;;;5063479;28;20056;-71
2021/04/12 02:27:06;;;;;;;1999.90;999.90;;;1.10;81.00;;;;;;5053756;28;20416;-71
2021/04/12 02:29:54;;;;;;;1999.90;999.90;;;1.10;81.10;;;;;;5003644;28;20073;-71
2021/04/12 02:32:30;;;;;;;;;;;1.20;81.30;;;;;;5066531;28;20141;-71
2021/04/12 02:35:24;;;;;;;1999.90;999.90;;;1.20;82.30;;;;;;5064565;28;20300;-71
2021/04/12 02:38:09;;;;;;;1999.90;999.90;;;1.30;82.10;;;;;;5063156;28;20059;-72
2021/04/12 02:40:55;;;;;;;1999.90;999.90;;;1.40;81.90;;;;;;5067245;28;20053;-71
2021/04/12 02:43:43;;;;;;;1999.90;999.90;;;1.50;81.60;;;;;;5066968;28;20486;-71
2021/04/12 02:46:47;;;;;;;1999.90;999.90;;;1.50;81.30;;;;;;5067622;28;20551;-71
2021/04/12 02:49:43;;;;;;;1999.90;999.90;;;1.60;80.70;;;;;;5063269;28;20040;-71
2021/04/12 02:52:18;;;;;;;1999.90;999.90;;;1.50;80.50;;;;;;5064714;28;20044;-71
2021/04/12 02:55:08;;;;;;;1999.90;999.90;;;1.50;80.60;;;;;;5061252;28;20057;-71
2021/04/12 02:58:07;;;;;;;1999.90;999.90;;;1.60;80.90;;;;;;5067203;28;20064;-71
2021/04/12 03:00:56;;;;;;;1999.90;999.90;;;1.60;80.50;;;;;;5064213;28;20049;-71
2021/04/12 03:03:53;;;;;;;1999.90;999.90;;;1.50;80.40;;;;;;5064829;28;20048;-71
2021/04/12 03:06:26;;;;;;;1999.90;999.90;;;1.40;80.40;;;;;;5064878;28;20044;-71
2021/04/12 03:09:14;;;;;;;1999.90;999.90;;;1.40;80.70;;;;;;5067458;28;20044;-71
2021/04/12 03:12:01;;;;;;;1999.90;999.90;;;1.40;80.90;;;;;;5067701;28;20048;-71
2021/04/12 03:15:03;;;;;;;1999.90;999.90;;;1.40;80.90;;;;;;5062275;28;20040;-71
2021/04/12 03:17:57;;;;;;;1999.90;999.90;;;1.40;80.70;;;;;;5067323;28;20051;-71
2021/04/12 03:20:38;;;;;;;1999.90;999.90;;;1.40;80.80;;;;;;5058863;28;20143;-70
2021/04/12 03:23:31;;;;;;;1999.90;999.90;;;1.40;80.90;;;;;;5067254;28;20048;-74
2021/04/12 03:26:20;;;;;;;1999.90;999.90;;;1.30;81.10;;;;;;5064319;28;20376;-71
2021/04/12 03:29:05;;;;;;;1999.90;999.90;;;1.30;81.30;;;;;;5066787;28;20435;-71
2021/04/12 03:32:31;;;;;;;1999.90;999.90;;;1.40;81.50;;;;;;5062051;28;20043;-71
2021/04/12 03:35:07;;;;;;;1999.90;999.90;;;1.40;81.90;;;;;;5046702;28;20512;-71
2021/04/12 03:37:42;;;;;;;1999.90;999.90;;;1.50;82.40;;;;;;5067380;28;20048;-71
2021/04/12 03:40:12;;;;;;;1999.90;999.90;;;1.60;82.60;;;;;;5067602;28;20403;-71
2021/04/12 03:42:55;;;;;;;;;;;1.60;82.60;;;;;;5064323;28;20468;-71
2021/04/12 03:45:24;;;;;;;1999.90;999.90;;;1.70;83.50;;;;;;5070067;28;19931;-71
2021/04/12 03:48:03;;;;;;;1999.90;999.90;;;1.80;83.10;;;;;;5068850;28;20044;-71
2021/04/12 03:51:06;;;;;;;1999.90;999.90;;;1.90;83.00;;;;;;5067439;28;20085;-71
2021/04/12 03:53:51;;;;;;;1999.90;999.90;;;1.90;82.40;;;;;;5064871;28;20074;-71
2021/04/12 03:56:18;;;;;;;1999.90;999.90;;;1.90;82.20;;;;;;5064838;28;20144;-71
2021/04/12 03:58:44;;;;;;;1999.90;999.90;;;1.80;82.30;;;;;;5068324;28;20052;-71
2021/04/12 04:01:24;;;;;;;1999.90;999.90;;;1.80;82.30;;;;;;5068143;28;20048;-71
2021/04/12 04:04:24;;;;;;;1999.90;999.90;;;1.70;82.30;;;;;;5070012;28;20048;-71
2021/04/12 04:07:05;;;;;;;1999.90;999.90;;;1.60;82.30;;;;;;5068373;28;20527;-71
2021/04/12 04:09:50;;;;;;;1999.90;999.90;;;1.60;82.30;;;;;;5063414;28;20194;-71
2021/04/12 04:12:44;;;;;;;1999.90;999.90;;;1.50;82.30;;;;;;5065479;28;20041;-71
2021/04/12 04:15:31;;;;;;;1999.90;999.90;;;1.50;82.30;;;;;;5061753;28;20076;-71
2021/04/12 04:18:26;;;;;;;1999.90;999.90;;;1.50;82.00;;;;;;5068129;28;20058;-71
2021/04/12 04:21:22;;;;;;;1999.90;999.90;;;1.40;81.90;;;;;;5064873;28;20056;-71
2021/04/12 04:24:19;;;;;;;1999.90;999.90;;;1.30;81.80;;;;;;5065211;28;20048;-71
2021/04/12 04:27:13;;;;;;;1999.90;999.90;;;1.30;81.80;;;;;;5062155;28;20463;-71
2021/04/12 04:30:10;;;;;;;1999.90;999.90;;;1.20;81.60;;;;;;5064658;28;20045;-71
2021/04/12 04:32:59;;;;;;;1999.90;999.90;;;1.10;81.40;;;;;;5068997;28;20504;-71
2021/04/12 04:35:53;;;;;;;1999.90;999.90;;;1.00;81.40;;;;;;5081040;28;20442;-71
2021/04/12 04:38:57;;;;;;;1999.90;999.90;;;1.00;81.30;;;;;;5063188;28;20407;-71
2021/04/12 04:41:57;;;;;;;1999.90;999.90;;;1.00;81.40;;;;;;5066597;28;20233;-71
2021/04/12 04:44:37;;;;;;;1999.90;999.90;;;0.90;81.20;;;;;;5066093;28;20058;-71
2021/04/12 04:47:17;;;;;;;1999.90;999.90;;;0.80;81.20;;;;;;5068006;28;20395;-71
2021/04/12 04:50:02;;;;;;;1999.90;999.90;;;0.80;81.20;;;;;;5067405;28;20044;-71
2021/04/12 04:52:31;;;;;;;1999.90;999.90;;;0.80;81.30;;;;;;5068086;28;20117;-71
2021/04/12 04:55:27;;;;;;;1999.90;999.90;;;0.70;81.20;;;;;;5069074;28;20047;-72
2021/04/12 04:58:00;;;;;;;1999.90;999.90;;;0.70;81.30;;;;;;5064909;28;20052;-70
2021/04/12 05:00:40;;;;;;;1999.90;999.90;;;0.70;81.30;;;;;;5069635;28;20092;-71
2021/04/12 05:03:24;;;;;;;1999.90;999.90;;;0.70;81.30;;;;;;5062835;28;20041;-71
2021/04/12 05:06:12;;;;;;;1999.90;999.90;;;0.70;81.40;;;;;;5067952;28;20129;-71
2021/04/12 05:09:10;;;;;;;1999.90;999.90;;;0.70;81.60;;;;;;5063241;28;20076;-71
2021/04/12 05:12:04;;;;;;;1999.90;999.90;;;0.70;81.70;;;;;;5065502;28;20472;-71
2021/04/12 05:14:52;;;;;;;1999.90;999.90;;;0.70;81.80;;;;;;5063934;28;20136;-71
2021/04/12 05:17:43;;;;;;;1999.90;999.90;;;0.80;82.10;;;;;;5066827;28;20101;-71
2021/04/12 05:20:31;;;;;;;1999.90;999.90;;;0.80;82.30;;;;;;5064942;28;20163;-71
2021/04/12 05:23:11;;;;;;;1999.90;999.90;;;0.90;82.50;;;;;;5068493;28;20094;-71
2021/04/12 05:25:53;;;;;;;1999.90;999.90;;;0.90;82.70;;;;;;5066130;28;20091;-71
2021/04/12 05:28:54;;;;;;;1999.90;999.90;;;1.00;82.90;;;;;;5064647;28;20139;-71
2021/04/12 05:31:58;;;;;;;1999.90;999.90;;;1.20;83.50;;;;;;5061116;28;20048;-70
2021/04/12 05:34:49;;;;;;;1999.90;999.90;;;1.30;83.90;;;;;;5061570;28;20059;-71
2021/04/12 05:37:28;;;;;;;1999.90;999.90;;;1.50;84.20;;;;;;5058484;28;20045;-70
2021/04/12 05:40:31;;;;;;;1999.90;999.90;;;1.60;84.70;;;;;;5060588;28;20083;-71
2021/04/12 05:43:03;;;;;;;1999.90;999.90;;;1.70;85.00;;;;;;5052959;28;20052;-71
2021/04/12 05:45:39;;;;;;;1999.90;999.90;;;1.80;85.90;;;;;;5055871;28;20051;-71
2021/04/12 05:48:29;;;;;;;1999.90;999.90;;;1.90;85.20;;;;;;5087228;28;20044;-71
2021/04/12 05:51:14;;;;;;;1999.90;999.90;;;2.00;85.90;;;;;;5054949;28;20138;-71
2021/04/12 05:54:07;;;;;;;1999.90;999.90;;;2.00;85.80;;;;;;5053703;28;20516;-71
2021/04/12 05:56:54;;;;;;;1999.90;999.90;;;2.00;85.80;;;;;;5051792;28;20495;-71
2021/04/12 05:59:36;;;;;;;1999.90;999.90;;;2.00;85.50;;;;;;5059906;28;20076;-71
2021/04/12 06:02:24;;;;;;;1999.90;999.90;;;2.10;85.40;;;;;;5070146;28;20404;-71
2021/04/12 06:05:20;;;;;;;1999.90;999.90;;;2.10;85.80;;;;;;5057291;28;20045;-71
2021/04/12 06:08:12;;;;;;;1999.90;999.90;;;2.20;85.80;;;;;;5058981;28;20403;-70
2021/04/12 06:10:44;;;;;;;1999.90;999.90;;;2.30;86.10;;;;;;5064164;28;20500;-71
2021/04/12 06:13:48;;;;;;;1999.90;999.90;;;2.30;85.70;;;;;;5062950;28;20418;-71
2021/04/12 06:16:32;;;;;;;1999.90;999.90;;;2.40;85.90;;;;;;5062007;28;20063;-71
2021/04/12 06:19:41;;;;;;;1999.90;999.90;;;2.50;86.40;;;;;;5058946;28;21016;-71
2021/04/12 06:22:25;;;;;;;1999.90;999.90;;;2.60;86.90;;;;;;5057221;28;20357;-71
2021/04/12 06:25:25;;;;;;;1999.90;999.90;;;2.70;87.20;;;;;;5059520;28;20340;-71
2021/04/12 06:28:19;;;;;;;1999.90;999.90;;;2.90;87.40;;;;;;5062572;28;20061;-71
2021/04/12 06:31:22;;;;;;;1999.90;999.90;;;2.90;87.80;;;;;;5060555;28;20095;-72
2021/04/12 06:34:20;;;;;;;1999.90;999.90;;;3.00;88.20;;;;;;5060262;28;20128;-71
2021/04/12 06:36:54;;;;;;;1999.90;999.90;;;3.10;89.40;;;;;;5061430;28;20044;-71
2021/04/12 06:39:39;;;;;;;1999.90;999.90;;;3.20;90.40;;;;;;5064010;28;20060;-71
2021/04/12 06:42:49;;;;;;;1999.90;999.90;;;3.30;90.20;;;;;;5061174;28;20047;-71
2021/04/12 06:45:33;;;;;;;1999.90;999.90;;;3.40;90.90;;;;;;5054682;28;20037;-72
2021/04/12 06:48:27;;;;;;;1999.90;999.90;;;3.50;91.60;;;;;;5063921;28;20049;-72
2021/04/12 07:02:54;;;;;;;1999.90;999.90;;;4.00;95.40;;;;;;5067242;28;20063;-72
2021/04/12 07:05:43;;;;;;;1999.90;999.90;;;4.10;96.70;;;;;;5062344;28;22485;-72
2021/04/12 07:08:31;;;;;;;1999.90;999.90;;;4.20;96.20;;;;;;5064842;28;20052;-71
2021/04/12 07:11:09;;;;;;;1999.90;999.90;;;4.40;96.40;;;;;;5069079;28;20059;-72
2021/04/12 07:14:05;;;;;;;1999.90;999.90;;;4.50;97.20;;;;;;5072133;28;20066;-72
2021/04/12 07:16:31;;;;;;;1999.90;999.90;;;4.50;98.40;;;;;;5048614;28;20041;-71
2021/04/12 07:19:52;;;;;;;1999.90;999.90;;;4.40;98.30;;;;;;5067901;28;20353;-71
2021/04/12 07:22:27;;;;;;;1999.90;999.90;;;4.10;96.60;;;;;;5044243;28;20052;-71
2021/04/12 07:25:33;;;;;;;1999.90;999.90;;;3.70;95.00;;;;;;5088887;28;20052;-71
2021/04/12 07:28:02;;;;;;;1999.90;999.90;;;3.50;94.00;;;;;;5065999;28;20476;-72
2021/04/12 07:31:06;;;;;;;1999.90;999.90;;;3.40;93.50;;;;;;5062420;28;20067;-71
2021/04/12 07:34:20;;;;;;;1999.90;999.90;;;3.40;93.40;;;;;;5062024;28;20040;-72
2021/04/12 07:37:05;;;;;;;1999.90;999.90;;;3.50;93.80;;;;;;5068382;28;20048;-71
2021/04/12 07:39:54;;;;;;;1999.90;999.90;;;3.60;93.50;;;;;;5067093;28;20045;-71
2021/04/12 07:42:44;;;;;;;1999.90;999.90;;;3.70;93.30;;;;;;5056573;28;20135;-71
2021/04/12 07:45:36;;;;;;;1999.90;999.90;;;3.80;93.50;;;;;;5060227;28;20140;-71
2021/04/12 07:48:38;;;;;;;1999.90;999.90;;;3.80;93.10;;;;;;5070814;28;20041;-72
2021/04/12 07:51:37;;;;;;;1999.90;999.90;;;3.80;92.90;;;;;;5069878;28;20448;-71
2021/04/12 07:54:31;;;;;;;1999.90;999.90;;;3.90;92.80;;;;;;5067561;28;20048;-71
2021/04/12 07:57:31;;;;;;;1999.90;999.90;;;3.90;92.40;;;;;;5068704;28;20047;-71
2021/04/12 08:00:38;;;;;;;1999.90;999.90;;;3.90;92.20;;;;;;5068627;28;20392;-71
2021/04/12 08:03:28;;;;;;;1999.90;999.90;;;3.90;92.20;;;;;;5067677;28;20053;-71
2021/04/12 08:06:32;;;;;;;1999.90;999.90;;;3.90;92.00;;;;;;5072207;28;20049;-71
2021/04/12 08:09:36;;;;;;;1999.90;999.90;;;4.10;93.40;;;;;;5066129;28;20484;-71
2021/04/12 08:12:53;;;;;;;1999.90;999.90;;;4.30;92.90;;;;;;5071421;28;20048;-71
2021/04/12 08:15:57;;;;;;;1999.90;999.90;;;4.50;93.50;;;;;;5052292;28;20494;-71
2021/04/12 08:18:32;;;;;;;1999.90;999.90;;;4.80;93.70;;;;;;5067136;28;20058;-71
2021/04/12 08:21:26;;;;;;;1999.90;999.90;;;5.10;95.20;;;;;;5068832;28;20089;-72
2021/04/12 08:24:24;;;;;;;1999.90;999.90;;;5.30;94.20;;;;;;5065515;28;20040;-72
2021/04/12 08:27:14;;;;;;;1999.90;999.90;;;5.50;96.70;;;;;;5063692;28;20060;-72
2021/04/12 08:30:08;;;;;;;1999.90;999.90;;;5.60;96.00;;;;;;5070764;28;20128;-72
2021/04/12 08:33:12;;;;;;;1999.90;999.90;;;5.70;95.10;;;;;;5070069;28;20047;-72
2021/04/12 08:36:19;;;;;;;1999.90;999.90;;;5.70;96.30;;;;;;5067184;28;20044;-72
2021/04/12 08:39:17;;;;;;;1999.90;999.90;;;5.50;96.10;;;;;;5067323;28;20056;-72
2021/04/12 08:42:22;;;;;;;1999.90;999.90;;;5.30;95.90;;;;;;5068743;28;20106;-71
2021/04/12 08:45:19;;;;;;;1999.90;999.90;;;5.20;96.00;;;;;;5068977;28;20140;-72
2021/04/12 08:48:06;;;;;;;1999.90;999.90;;;5.10;95.60;;;;;;5071179;28;20040;-72
2021/04/12 08:51:03;;;;;;;1999.90;999.90;;;5.10;96.50;;;;;;5067178;28;20051;-72
2021/04/12 08:53:58;;;;;;;1999.90;999.90;;;5.00;96.10;;;;;;5067303;28;20048;-72
2021/04/12 08:56:54;;;;;;;1999.90;999.90;;;4.90;97.80;;;;;;5070073;28;20066;-71
2021/04/12 08:59:45;;;;;;;1999.90;999.90;;;4.90;96.60;;;;;;5061860;28;20108;-72
2021/04/12 09:02:39;;;;;;;1999.90;999.90;;;4.90;96.80;;;;;;5062686;28;20135;-72
2021/04/12 09:05:23;;;;;;;1999.90;999.90;;;4.90;97.60;;;;;;5078267;28;20106;-71
2021/04/12 09:08:27;;;;;;;1999.90;999.90;;;4.90;99.10;;;;;;5061281;28;20434;-71
2021/04/12 09:11:23;;;;;;;1999.90;999.90;;;4.80;99.10;;;;;;5068877;28;20135;-72
2021/04/12 09:14:08;;;;;;;1999.90;999.90;;;4.50;98.50;;;;;;5068399;28;20049;-72
2021/04/12 09:16:49;;;;;;;1999.90;999.90;;;4.30;99.10;;;;;;5069367;28;20044;-71
2021/04/12 09:19:43;;;;;;;1999.90;999.90;;;4.10;99.80;;;;;;5064198;28;20044;-71
2021/04/12 09:22:31;;;;;;;1999.90;999.90;;;3.80;99.90;;;;;;5063017;28;20076;-70
2021/04/12 09:25:26;;;;;;;1999.90;999.90;;;3.50;98.80;;;;;;5061190;28;20139;-70
2021/04/12 09:28:14;;;;;;;1999.90;999.90;;;3.30;99.30;;;;;;5061501;28;20542;-70
2021/04/12 09:30:56;;;;;;;1999.90;999.90;;;3.20;98.40;;;;;;5059817;28;20132;-71
2021/04/12 09:33:49;;;;;;;1999.90;999.90;;;3.10;98.70;;;;;;5065843;28;20037;-71
2021/04/12 09:36:55;;;;;;;1999.90;999.90;;;3.00;98.70;;;;;;5066784;28;20043;-70
2021/04/12 09:39:40;;;;;;;1999.90;999.90;;;2.90;99.90;;;;;;5053811;28;20052;-70
2021/04/12 09:42:25;;;;;;;1999.90;999.90;;;3.00;99.70;;;;;;5066181;28;20376;-71
2021/04/12 09:45:00;;;;;;;1999.90;999.90;;;3.10;99.90;;;;;;5069397;28;20533;-71
2021/04/12 09:47:48;;;;;;;1999.90;999.90;;;3.10;99.90;;;;;;5069550;28;20121;-71
2021/04/12 09:51:07;;;;;;;1999.90;999.90;;;3.20;99.90;;;;;;5068983;28;20052;-71
2021/04/12 09:53:40;;;;;;;1999.90;999.90;;;3.20;99.90;;;;;;5049362;28;20052;-71
2021/04/12 09:56:18;;;;;;;1999.90;999.90;;;3.10;99.90;;;;;;5059721;28;20124;-70
2021/04/12 09:59:06;;;;;;;1999.90;999.90;;;3.00;99.90;;;;;;5063480;28;20095;-71
2021/04/12 10:02:03;;;;;;;1999.90;999.90;;;3.10;99.90;;;;;;5062977;28;20059;-70
2021/04/12 10:04:29;;;;;;;1999.90;999.90;;;3.30;99.90;;;;;;5062138;28;20136;-71
2021/04/12 10:07:10;;;;;;;1999.90;999.90;;;3.60;99.90;;;;;;5061493;28;20049;-71
2021/04/12 10:09:39;;;;;;;1999.90;999.90;;;3.80;99.90;;;;;;5062129;28;20048;-71
2021/04/12 10:12:39;;;;;;;1999.90;999.90;;;4.00;99.90;;;;;;5061728;28;20044;-71
2021/04/12 10:15:20;;;;;;;1999.90;999.90;;;4.30;99.90;;;;;;5060252;28;20045;-71
2021/04/12 10:18:14;;;;;;;1999.90;999.90;;;4.50;99.90;;;;;;5065475;28;20051;-72
2021/04/12 10:20:45;;;;;;;1999.90;999.90;;;4.80;99.90;;;;;;5065106;28;20131;-71
2021/04/12 10:23:19;;;;;;;1999.90;999.90;;;5.10;99.90;;;;;;5064299;28;20431;-71
2021/04/12 10:25:54;;;;;;;1999.90;999.90;;;5.40;99.90;;;;;;5062633;28;20474;-71
2021/04/12 10:28:28;;;;;;;1999.90;999.90;;;5.60;99.90;;;;;;5068972;28;20494;-71
2021/04/12 10:31:14;;;;;;;1999.90;999.90;;;5.90;99.90;;;;;;5063022;28;20052;-71
2021/04/12 10:33:44;;;;;;;1999.90;999.90;;;6.00;99.90;;;;;;5064723;28;20547;-71
2021/04/12 10:36:30;;;;;;;1999.90;999.90;;;6.10;99.90;;;;;;5067261;28;20464;-72
2021/04/12 10:39:14;;;;;;;1999.90;999.90;;;6.30;99.90;;;;;;5069016;28;20438;-72
2021/04/12 10:41:49;;;;;;;1999.90;999.90;;;6.40;99.90;;;;;;5062916;28;20060;-71
2021/04/12 10:44:24;;;;;;;1999.90;999.90;;;6.60;99.90;;;;;;5059859;28;20044;-71
2021/04/12 10:47:29;;;;;;;1999.90;999.90;;;6.90;99.90;;;;;;5063652;28;20051;-72
2021/04/12 10:50:44;;;;;;;1999.90;999.90;;;7.10;99.90;;;;;;5066957;28;20132;-72
2021/04/12 10:53:44;;;;;;;1999.90;999.90;;;7.40;99.90;;;;;;5043596;28;20041;-72
2021/04/12 10:56:41;;;;;;;1999.90;999.90;;;7.90;99.90;;;;;;5064431;28;20461;-72
2021/04/12 10:59:44;;;;;;;1999.90;999.90;;;8.10;99.90;;;;;;5067341;28;20473;-72
2021/04/12 11:02:27;;;;;;;1999.90;999.90;;;8.20;99.90;;;;;;5059639;28;20084;-72
2021/04/12 11:05:03;;;;;;;1999.90;999.90;;;8.20;99.90;;;;;;5065941;28;20131;-72
2021/04/12 11:07:44;;;;;;;1999.90;999.90;;;8.30;99.90;;;;;;5064519;28;20103;-72
2021/04/12 11:10:55;;;;;;;1999.90;999.90;;;8.50;99.90;;;;;;5067972;28;20449;-72
2021/04/12 11:13:42;;;;;;;1999.90;999.90;;;8.60;99.90;;;;;;5048063;28;20075;-72
2021/04/12 11:16:25;;;;;;;1999.90;999.90;;;8.80;99.90;;;;;;5058674;28;20045;-72
2021/04/12 11:19:11;;;;;;;1999.90;999.90;;;8.80;99.90;;;;;;5063358;28;20049;-72
2021/04/12 11:21:51;;;;;;;1999.90;999.90;;;8.80;99.90;;;;;;5065658;28;20476;-72
2021/04/12 11:24:23;;;;;;;1999.90;999.90;;;8.90;99.90;;;;;;5066374;28;20127;-72
2021/04/12 11:27:11;;;;;;;1999.90;999.90;;;8.90;99.90;;;;;;5060328;28;20121;-72
2021/04/12 11:29:43;;;;;;;1999.90;999.90;;;8.80;99.90;;;;;;5092997;28;20452;-72
2021/04/12 11:32:25;;;;;;;1999.90;999.90;;;8.70;99.90;;;;;;5059406;28;20079;-72
2021/04/12 11:35:02;;;;;;;1999.90;999.90;;;8.80;98.70;;;;;;5061495;28;20102;-72
2021/04/12 11:37:54;;;;;;;1999.90;999.90;;;8.90;99.90;;;;;;5065171;28;20076;-72
2021/04/12 11:41:05;;;;;;;1999.90;999.90;;;9.00;99.40;;;;;;5060370;28;20073;-72
2021/04/12 11:43:36;;;;;;;1999.90;999.90;;;9.00;98.10;;;;;;5060229;28;20072;-72
2021/04/12 11:46:25;;;;;;;1999.90;999.90;;;9.00;97.00;;;;;;5058248;28;20369;-72
2021/04/12 11:49:23;;;;;;;1999.90;999.90;;;8.90;99.00;;;;;;5067390;28;20139;-72
2021/04/12 11:51:58;;;;;;;1999.90;999.90;;;8.90;98.80;;;;;;5064328;28;20055;-72
2021/04/12 11:54:41;;;;;;;1999.90;999.90;;;9.10;98.90;;;;;;5065263;28;20040;-72
2021/04/12 11:57:40;;;;;;;1999.90;999.90;;;9.50;98.90;;;;;;5066349;28;20056;-72
2021/04/12 12:00:18;;;;;;;1999.90;999.90;;;9.80;98.50;;;;;;5065844;28;20121;-72
2021/04/12 12:02:51;;;;;;;1999.90;999.90;;;9.80;99.90;;;;;;5068306;28;20060;-72
2021/04/12 12:05:33;;;;;;;1999.90;999.90;;;9.60;99.40;;;;;;5063655;28;20060;-72
2021/04/12 12:08:06;;;;;;;1999.90;999.90;;;9.20;98.70;;;;;;5065595;28;20048;-71
2021/04/12 12:10:38;;;;;;;1999.90;999.90;;;8.70;98.20;;;;;;5061719;28;20049;-72
2021/04/12 12:13:30;;;;;;;1999.90;999.90;;;8.30;97.80;;;;;;5066634;28;20407;-72
2021/04/12 12:16:11;;;;;;;1999.90;999.90;;;7.90;97.60;;;;;;5069636;28;20472;-72
2021/04/12 12:18:59;;;;;;;1999.90;999.90;;;7.60;97.50;;;;;;5066951;28;20148;-72
2021/04/12 12:21:41;;;;;;;1999.90;999.90;;;7.50;97.30;;;;;;5068858;28;20043;-72
2021/04/12 12:24:13;;;;;;;1999.90;999.90;;;7.30;97.10;;;;;;5067073;28;20048;-72
2021/04/12 12:27:07;;;;;;;1999.90;999.90;;;7.30;96.90;;;;;;5066514;28;20048;-72
2021/04/12 12:30:00;;;;;;;1999.90;999.90;;;7.20;96.80;;;;;;5067690;28;20102;-72
2021/04/12 12:32:36;;;;;;;1999.90;999.90;;;7.20;96.60;;;;;;5069419;28;20041;-72
2021/04/12 12:35:32;;;;;;;1999.90;999.90;;;7.30;96.50;;;;;;5068002;28;20412;-72
2021/04/12 12:38:37;;;;;;;1999.90;999.90;;;7.30;96.30;;;;;;5066827;28;20115;-72
2021/04/12 12:41:18;;;;;;;1999.90;999.90;;;7.40;96.20;;;;;;5067385;28;20083;-72
2021/04/12 12:43:47;;;;;;;1999.90;999.90;;;7.60;96.10;;;;;;5065383;28;20593;-72
2021/04/12 12:46:20;;;;;;;1999.90;999.90;;;7.80;96.00;;;;;;5067976;28;20041;-72
2021/04/12 12:48:57;;;;;;;1999.90;999.90;;;8.20;95.70;;;;;;5065732;28;20439;-72
2021/04/12 12:51:32;;;;;;;1999.90;999.90;;;8.60;95.70;;;;;;5069074;28;20056;-72
2021/04/12 12:54:06;;;;;;;1999.90;999.90;;;8.90;95.30;;;;;;5067842;28;20499;-72
2021/04/12 12:56:37;;;;;;;1999.90;999.90;;;9.10;95.00;;;;;;5061203;28;20128;-72
2021/04/12 12:59:18;;;;;;;1999.90;999.90;;;9.30;94.70;;;;;;5060875;28;20450;-72
2021/04/12 13:01:45;;;;;;;1999.90;999.90;;;9.50;93.70;;;;;;5063833;28;20049;-72
2021/04/12 13:04:29;;;;;;;1999.90;999.90;;;9.70;92.90;;;;;;5059684;28;20049;-72
2021/04/12 13:07:09;;;;;;;1999.90;999.90;;;9.90;93.30;;;;;;5064223;28;20045;-72
2021/04/12 13:09:37;;;;;;;1999.90;999.90;;;10.20;93.30;;;;;;5061700;28;20041;-72
2021/04/12 13:12:15;;;;;;;1999.90;999.90;;;10.40;93.30;;;;;;5062966;28;20048;-72
2021/04/12 13:14:44;;;;;;;1999.90;999.90;;;10.60;92.60;;;;;;5062454;28;20051;-72
2021/04/12 13:17:33;;;;;;;1999.90;999.90;;;10.60;92.40;;;;;;5059955;28;20094;-72
2021/04/12 13:20:25;;;;;;;1999.90;999.90;;;10.60;89.70;;;;;;5056039;28;20087;-72
2021/04/12 13:23:06;;;;;;;1999.90;999.90;;;10.60;86.60;;;;;;5062910;28;20852;-72
2021/04/12 13:25:39;;;;;;;1999.90;999.90;;;10.50;82.30;;;;;;5057802;28;20051;-72
2021/04/12 13:28:14;;;;;;;1999.90;999.90;;;10.40;88.00;;;;;;5053125;28;20118;-72
2021/04/12 13:30:48;;;;;;;1999.90;999.90;;;10.40;87.10;;;;;;5059629;28;20045;-72
2021/04/12 13:33:30;;;;;;;1999.90;999.90;;;10.20;86.40;;;;;;5055330;28;20041;-72
2021/04/12 13:36:05;;;;;;;1999.90;999.90;;;9.90;87.10;;;;;;5059961;28;20040;-72
2021/04/12 13:38:35;;;;;;;1999.90;999.90;;;9.60;86.70;;;;;;5064083;28;20412;-72
2021/04/12 13:41:07;;;;;;;1999.90;999.90;;;9.30;86.10;;;;;;5060102;28;20053;-72
2021/04/12 13:43:37;;;;;;;1999.90;999.90;;;9.20;88.10;;;;;;5063628;28;20139;-72
2021/04/12 13:46:26;;;;;;;1999.90;999.90;;;9.10;85.70;;;;;;5063723;28;20043;-72
2021/04/12 13:49:07;;;;;;;1999.90;999.90;;;8.90;85.20;;;;;;5060370;28;20051;-72
2021/04/12 13:51:44;;;;;;;1999.90;999.90;;;8.70;88.40;;;;;;5055908;28;20099;-72
2021/04/12 13:54:29;;;;;;;1999.90;999.90;;;8.40;89.20;;;;;;5058018;28;20037;-72
2021/04/12 13:57:13;;;;;;;1999.90;999.90;;;8.10;89.50;;;;;;5060945;28;20040;-73
2021/04/12 13:59:44;;;;;;;1999.90;999.90;;;8.00;90.10;;;;;;5055815;28;20443;-72